Terminal Aerodrome Forecast
Issued by NWS Jackson, KY

Home | Current Version | Previous Version | Graphics & Text | Print | Product List | Glossary On
Versions: 1 2 3 4 5 6 7 8 9 10 11 12 13 14 15 16 17
599
FTUS43 KJKL 181126
TAFJKL
TAF
KJKL 181126Z 1812/1912 VRB03KT 2SM -DZ BR OVC003
     FM181600 VRB05KT 3SM -DZ BR OVC008
     FM190100 VRB05KT 3SM -DZ OVC010
     FM190400 VRB05KT P6SM BKN010
     FM190500 VRB04KT P6SM BKN008=

USA.gov is the U.S. government's official web portal to all federal, state and local government web resources and services.